sensor_id;sensor_type;location;lat;lon;timestamp;temperature;humidity
2721;DHT22;1368;49.484;11.112;2022-11-20T00:00:49;3.00;99.90
2721;DHT22;1368;49.484;11.112;2022-11-20T00:03:15;2.80;99.90
2721;DHT22;1368;49.484;11.112;2022-11-20T00:05:40;2.60;99.90
2721;DHT22;1368;49.484;11.112;2022-11-20T00:08:06;2.50;99.90
2721;DHT22;1368;49.484;11.112;2022-11-20T00:10:31;2.60;99.90
2721;DHT22;1368;49.484;11.112;2022-11-20T00:13:00;2.70;99.90
2721;DHT22;1368;49.484;11.112;2022-11-20T00:15:25;2.70;99.90
2721;DHT22;1368;49.484;11.112;2022-11-20T00:17:51;2.40;99.90
2721;DHT22;1368;49.484;11.112;2022-11-20T00:20:17;2.30;99.90
2721;DHT22;1368;49.484;11.112;2022-11-20T00:22:42;2.10;99.90
2721;DHT22;1368;49.484;11.112;2022-11-20T00:25:08;2.10;99.90
2721;DHT22;1368;49.484;11.112;2022-11-20T00:27:34;2.30;99.90
2721;DHT22;1368;49.484;11.112;2022-11-20T00:29:59;2.60;99.90
2721;DHT22;1368;49.484;11.112;2022-11-20T00:32:25;2.70;99.90
2721;DHT22;1368;49.484;11.112;2022-11-20T00:34:50;2.60;99.90
2721;DHT22;1368;49.484;11.112;2022-11-20T00:37:16;2.50;99.90
2721;DHT22;1368;49.484;11.112;2022-11-20T00:39:42;2.50;99.90
2721;DHT22;1368;49.484;11.112;2022-11-20T00:42:07;2.50;99.90
2721;DHT22;1368;49.484;11.112;2022-11-20T00:44:33;2.60;99.90
2721;DHT22;1368;49.484;11.112;2022-11-20T00:46:58;2.40;99.90
2721;DHT22;1368;49.484;11.112;2022-11-20T00:49:24;2.10;99.90
2721;DHT22;1368;49.484;11.112;2022-11-20T00:51:49;2.00;99.90
2721;DHT22;1368;49.484;11.112;2022-11-20T00:54:15;2.20;99.90
2721;DHT22;1368;49.484;11.112;2022-11-20T00:56:40;2.40;99.90
2721;DHT22;1368;49.484;11.112;2022-11-20T00:59:08;2.60;99.90
2721;DHT22;1368;49.484;11.112;2022-11-20T01:01:33;2.80;99.90
2721;DHT22;1368;49.484;11.112;2022-11-20T01:03:59;2.70;99.90
2721;DHT22;1368;49.484;11.112;2022-11-20T01:06:28;2.50;99.90
2721;DHT22;1368;49.484;11.112;2022-11-20T01:08:56;2.60;99.90
2721;DHT22;1368;49.484;11.112;2022-11-20T01:11:25;2.90;99.90
2721;DHT22;1368;49.484;11.112;2022-11-20T01:13:52;3.10;99.90
2721;DHT22;1368;49.484;11.112;2022-11-20T01:16:27;3.20;99.90
2721;DHT22;1368;49.484;11.112;2022-11-20T01:18:55;3.40;99.90
2721;DHT22;1368;49.484;11.112;2022-11-20T01:21:26;3.40;99.90
2721;DHT22;1368;49.484;11.112;2022-11-20T01:23:53;3.50;99.90
2721;DHT22;1368;49.484;11.112;2022-11-20T01:26:21;3.60;99.90
2721;DHT22;1368;49.484;11.112;2022-11-20T01:28:47;3.60;99.90
2721;DHT22;1368;49.484;11.112;2022-11-20T01:31:15;3.60;99.90
2721;DHT22;1368;49.484;11.112;2022-11-20T01:33:41;3.80;99.90
2721;DHT22;1368;49.484;11.112;2022-11-20T01:36:08;3.80;99.90
2721;DHT22;1368;49.484;11.112;2022-11-20T01:38:34;3.90;99.90
2721;DHT22;1368;49.484;11.112;2022-11-20T01:40:59;3.50;99.90
2721;DHT22;1368;49.484;11.112;2022-11-20T01:43:25;3.30;99.90
2721;DHT22;1368;49.484;11.112;2022-11-20T01:48:50;3.60;99.90
2721;DHT22;1368;49.484;11.112;2022-11-20T01:51:29;3.60;99.90
2721;DHT22;1368;49.484;11.112;2022-11-20T01:53:58;3.70;99.90
2721;DHT22;1368;49.484;11.112;2022-11-20T01:56:25;3.70;99.90
2721;DHT22;1368;49.484;11.112;2022-11-20T01:58:55;3.80;99.90
2721;DHT22;1368;49.484;11.112;2022-11-20T02:01:22;4.00;99.90
2721;DHT22;1368;49.484;11.112;2022-11-20T02:03:49;4.00;99.90
2721;DHT22;1368;49.484;11.112;2022-11-20T02:06:26;4.10;99.90
2721;DHT22;1368;49.484;11.112;2022-11-20T02:08:53;4.00;99.90
2721;DHT22;1368;49.484;11.112;2022-11-20T02:11:19;4.00;99.90
2721;DHT22;1368;49.484;11.112;2022-11-20T02:13:45;4.10;99.90
2721;DHT22;1368;49.484;11.112;2022-11-20T02:18:43;4.20;99.90
2721;DHT22;1368;49.484;11.112;2022-11-20T02:24:03;4.20;99.90
2721;DHT22;1368;49.484;11.112;2022-11-20T02:26:32;4.10;99.90
2721;DHT22;1368;49.484;11.112;2022-11-20T02:29:00;4.10;99.90
2721;DHT22;1368;49.484;11.112;2022-11-20T02:31:27;4.20;99.90
2721;DHT22;1368;49.484;11.112;2022-11-20T02:33:56;4.20;99.90
2721;DHT22;1368;49.484;11.112;2022-11-20T02:36:25;4.20;99.90
2721;DHT22;1368;49.484;11.112;2022-11-20T02:38:51;4.10;99.90
2721;DHT22;1368;49.484;11.112;2022-11-20T02:41:17;4.10;99.90
2721;DHT22;1368;49.484;11.112;2022-11-20T02:43:43;4.20;99.90
2721;DHT22;1368;49.484;11.112;2022-11-20T02:46:08;4.20;99.90
2721;DHT22;1368;49.484;11.112;2022-11-20T02:48:34;3.90;99.90
2721;DHT22;1368;49.484;11.112;2022-11-20T02:51:00;3.60;99.90
2721;DHT22;1368;49.484;11.112;2022-11-20T02:53:25;3.10;99.90
2721;DHT22;1368;49.484;11.112;2022-11-20T02:55:51;3.60;99.90
2721;DHT22;1368;49.484;11.112;2022-11-20T02:58:17;3.10;99.90
2721;DHT22;1368;49.484;11.112;2022-11-20T03:00:42;2.90;99.90
2721;DHT22;1368;49.484;11.112;2022-11-20T03:03:08;3.10;99.90
2721;DHT22;1368;49.484;11.112;2022-11-20T03:05:33;3.30;99.90
2721;DHT22;1368;49.484;11.112;2022-11-20T03:07:59;3.40;99.90
2721;DHT22;1368;49.484;11.112;2022-11-20T03:10:25;3.50;99.90
2721;DHT22;1368;49.484;11.112;2022-11-20T03:12:54;3.50;99.90
2721;DHT22;1368;49.484;11.112;2022-11-20T03:15:23;3.30;99.90
2721;DHT22;1368;49.484;11.112;2022-11-20T03:17:52;3.40;99.90
2721;DHT22;1368;49.484;11.112;2022-11-20T03:20:18;3.30;99.90
2721;DHT22;1368;49.484;11.112;2022-11-20T03:22:43;3.30;99.90
2721;DHT22;1368;49.484;11.112;2022-11-20T03:25:09;3.20;99.90
2721;DHT22;1368;49.484;11.112;2022-11-20T03:27:34;3.10;99.90
2721;DHT22;1368;49.484;11.112;2022-11-20T03:30:00;3.10;99.90
2721;DHT22;1368;49.484;11.112;2022-11-20T03:32:26;3.10;99.90
2721;DHT22;1368;49.484;11.112;2022-11-20T03:34:52;3.10;99.90
2721;DHT22;1368;49.484;11.112;2022-11-20T03:37:17;3.10;99.90
2721;DHT22;1368;49.484;11.112;2022-11-20T03:39:43;3.00;99.90
2721;DHT22;1368;49.484;11.112;2022-11-20T03:42:09;3.00;99.90
2721;DHT22;1368;49.484;11.112;2022-11-20T03:44:54;3.10;99.90
2721;DHT22;1368;49.484;11.112;2022-11-20T03:47:20;3.20;99.90
2721;DHT22;1368;49.484;11.112;2022-11-20T03:49:45;3.40;99.90
2721;DHT22;1368;49.484;11.112;2022-11-20T03:52:11;3.30;99.90
2721;DHT22;1368;49.484;11.112;2022-11-20T03:54:37;3.50;99.90
2721;DHT22;1368;49.484;11.112;2022-11-20T03:57:02;3.60;99.90
2721;DHT22;1368;49.484;11.112;2022-11-20T03:59:28;3.70;99.90
2721;DHT22;1368;49.484;11.112;2022-11-20T04:01:53;3.90;99.90
2721;DHT22;1368;49.484;11.112;2022-11-20T04:04:19;3.90;99.90
2721;DHT22;1368;49.484;11.112;2022-11-20T04:06:44;3.90;99.90
2721;DHT22;1368;49.484;11.112;2022-11-20T04:09:10;3.80;99.90
2721;DHT22;1368;49.484;11.112;2022-11-20T04:11:39;3.10;99.90
2721;DHT22;1368;49.484;11.112;2022-11-20T04:14:06;3.00;99.90
2721;DHT22;1368;49.484;11.112;2022-11-20T04:16:34;2.80;99.90
2721;DHT22;1368;49.484;11.112;2022-11-20T04:19:01;2.70;99.90
2721;DHT22;1368;49.484;11.112;2022-11-20T04:21:27;2.70;99.90
2721;DHT22;1368;49.484;11.112;2022-11-20T04:23:54;2.60;99.90
2721;DHT22;1368;49.484;11.112;2022-11-20T04:26:22;2.70;99.90
2721;DHT22;1368;49.484;11.112;2022-11-20T04:28:48;2.70;99.90
2721;DHT22;1368;49.484;11.112;2022-11-20T04:31:16;2.80;99.90
2721;DHT22;1368;49.484;11.112;2022-11-20T04:33:42;2.90;99.90
2721;DHT22;1368;49.484;11.112;2022-11-20T04:36:20;3.10;99.90
2721;DHT22;1368;49.484;11.112;2022-11-20T04:38:46;3.10;99.90
2721;DHT22;1368;49.484;11.112;2022-11-20T04:41:17;2.90;99.90
2721;DHT22;1368;49.484;11.112;2022-11-20T04:43:50;2.90;99.90
2721;DHT22;1368;49.484;11.112;2022-11-20T04:46:16;3.00;99.90
2721;DHT22;1368;49.484;11.112;2022-11-20T04:48:42;3.00;99.90
2721;DHT22;1368;49.484;11.112;2022-11-20T04:51:08;2.90;99.90
2721;DHT22;1368;49.484;11.112;2022-11-20T04:53:33;2.90;99.90
2721;DHT22;1368;49.484;11.112;2022-11-20T04:56:04;3.00;99.90
2721;DHT22;1368;49.484;11.112;2022-11-20T04:58:31;3.20;99.90
2721;DHT22;1368;49.484;11.112;2022-11-20T05:01:22;3.10;99.90
2721;DHT22;1368;49.484;11.112;2022-11-20T05:03:49;3.10;99.90
2721;DHT22;1368;49.484;11.112;2022-11-20T05:06:18;3.10;99.90
2721;DHT22;1368;49.484;11.112;2022-11-20T05:08:44;2.90;99.90
2721;DHT22;1368;49.484;11.112;2022-11-20T05:11:15;2.80;99.90
2721;DHT22;1368;49.484;11.112;2022-11-20T05:13:42;2.70;99.90
2721;DHT22;1368;49.484;11.112;2022-11-20T05:16:16;2.90;99.90
2721;DHT22;1368;49.484;11.112;2022-11-20T05:18:41;3.00;99.90
2721;DHT22;1368;49.484;11.112;2022-11-20T05:21:08;2.70;99.90
2721;DHT22;1368;49.484;11.112;2022-11-20T05:23:35;2.90;99.90
2721;DHT22;1368;49.484;11.112;2022-11-20T05:26:01;3.10;99.90
2721;DHT22;1368;49.484;11.112;2022-11-20T05:28:28;3.40;99.90
2721;DHT22;1368;49.484;11.112;2022-11-20T05:30:55;3.60;99.90
2721;DHT22;1368;49.484;11.112;2022-11-20T05:33:21;3.80;99.90
2721;DHT22;1368;49.484;11.112;2022-11-20T05:35:46;3.90;99.90
2721;DHT22;1368;49.484;11.112;2022-11-20T05:38:13;4.00;99.90
2721;DHT22;1368;49.484;11.112;2022-11-20T05:40:39;4.10;99.90
2721;DHT22;1368;49.484;11.112;2022-11-20T05:43:04;4.20;99.90
2721;DHT22;1368;49.484;11.112;2022-11-20T05:45:30;4.30;99.90
2721;DHT22;1368;49.484;11.112;2022-11-20T05:47:59;4.20;99.90
2721;DHT22;1368;49.484;11.112;2022-11-20T05:50:26;4.30;99.90
2721;DHT22;1368;49.484;11.112;2022-11-20T05:52:52;4.30;99.90
2721;DHT22;1368;49.484;11.112;2022-11-20T05:55:17;4.30;99.90
2721;DHT22;1368;49.484;11.112;2022-11-20T05:57:43;4.00;99.90
2721;DHT22;1368;49.484;11.112;2022-11-20T06:00:09;3.90;99.90
2721;DHT22;1368;49.484;11.112;2022-11-20T06:02:35;3.90;99.90
2721;DHT22;1368;49.484;11.112;2022-11-20T06:05:01;4.00;99.90
2721;DHT22;1368;49.484;11.112;2022-11-20T06:07:27;4.10;99.90
2721;DHT22;1368;49.484;11.112;2022-11-20T06:09:52;4.10;99.90
2721;DHT22;1368;49.484;11.112;2022-11-20T06:12:18;4.20;99.90
2721;DHT22;1368;49.484;11.112;2022-11-20T06:14:43;4.20;99.90
2721;DHT22;1368;49.484;11.112;2022-11-20T06:17:09;4.20;99.90
2721;DHT22;1368;49.484;11.112;2022-11-20T06:19:34;4.20;99.90
2721;DHT22;1368;49.484;11.112;2022-11-20T06:22:00;4.00;99.90
2721;DHT22;1368;49.484;11.112;2022-11-20T06:24:25;3.70;99.90
2721;DHT22;1368;49.484;11.112;2022-11-20T06:26:51;3.60;99.90
2721;DHT22;1368;49.484;11.112;2022-11-20T06:29:17;3.70;99.90
2721;DHT22;1368;49.484;11.112;2022-11-20T06:31:42;3.70;99.90
2721;DHT22;1368;49.484;11.112;2022-11-20T06:34:08;3.50;99.90
2721;DHT22;1368;49.484;11.112;2022-11-20T06:36:34;3.50;99.90
2721;DHT22;1368;49.484;11.112;2022-11-20T06:39:00;3.60;99.90
2721;DHT22;1368;49.484;11.112;2022-11-20T06:41:26;3.80;99.90
2721;DHT22;1368;49.484;11.112;2022-11-20T06:43:53;3.90;99.90
2721;DHT22;1368;49.484;11.112;2022-11-20T06:46:19;3.80;99.90
2721;DHT22;1368;49.484;11.112;2022-11-20T06:48:46;3.70;99.90
2721;DHT22;1368;49.484;11.112;2022-11-20T06:51:11;3.90;99.90
2721;DHT22;1368;49.484;11.112;2022-11-20T06:53:37;4.00;99.90
2721;DHT22;1368;49.484;11.112;2022-11-20T06:56:04;4.00;99.90
2721;DHT22;1368;49.484;11.112;2022-11-20T06:58:32;4.20;99.90
2721;DHT22;1368;49.484;11.112;2022-11-20T07:01:09;4.30;99.90
2721;DHT22;1368;49.484;11.112;2022-11-20T07:03:36;4.30;99.90
2721;DHT22;1368;49.484;11.112;2022-11-20T07:06:02;4.30;99.90
2721;DHT22;1368;49.484;11.112;2022-11-20T07:08:28;4.30;99.90
2721;DHT22;1368;49.484;11.112;2022-11-20T07:11:00;4.40;99.90
2721;DHT22;1368;49.484;11.112;2022-11-20T07:13:27;4.30;99.90
2721;DHT22;1368;49.484;11.112;2022-11-20T07:15:53;4.00;99.90
2721;DHT22;1368;49.484;11.112;2022-11-20T07:18:19;4.00;99.90
2721;DHT22;1368;49.484;11.112;2022-11-20T07:20:45;4.10;99.90
2721;DHT22;1368;49.484;11.112;2022-11-20T07:23:11;4.20;99.90
2721;DHT22;1368;49.484;11.112;2022-11-20T07:25:36;4.30;99.90
2721;DHT22;1368;49.484;11.112;2022-11-20T07:28:02;4.30;99.90
2721;DHT22;1368;49.484;11.112;2022-11-20T07:30:28;4.30;99.90
2721;DHT22;1368;49.484;11.112;2022-11-20T07:32:55;4.40;99.90
2721;DHT22;1368;49.484;11.112;2022-11-20T07:35:23;4.40;99.90
2721;DHT22;1368;49.484;11.112;2022-11-20T07:37:48;4.50;99.90
2721;DHT22;1368;49.484;11.112;2022-11-20T07:40:15;4.60;99.90
2721;DHT22;1368;49.484;11.112;2022-11-20T07:42:51;4.70;99.90
2721;DHT22;1368;49.484;11.112;2022-11-20T07:45:17;4.70;99.90
2721;DHT22;1368;49.484;11.112;2022-11-20T07:47:43;4.60;99.90
2721;DHT22;1368;49.484;11.112;2022-11-20T07:50:09;4.40;99.90
2721;DHT22;1368;49.484;11.112;2022-11-20T07:52:35;4.40;99.90
2721;DHT22;1368;49.484;11.112;2022-11-20T07:55:00;4.40;99.90
2721;DHT22;1368;49.484;11.112;2022-11-20T07:57:26;4.50;99.90
2721;DHT22;1368;49.484;11.112;2022-11-20T07:59:51;4.70;99.90
2721;DHT22;1368;49.484;11.112;2022-11-20T08:02:17;5.00;99.90
2721;DHT22;1368;49.484;11.112;2022-11-20T08:04:42;5.10;99.90
2721;DHT22;1368;49.484;11.112;2022-11-20T08:07:08;5.10;99.90
2721;DHT22;1368;49.484;11.112;2022-11-20T08:09:33;5.20;99.90
2721;DHT22;1368;49.484;11.112;2022-11-20T08:11:59;5.30;99.90
2721;DHT22;1368;49.484;11.112;2022-11-20T08:14:43;5.30;99.90
2721;DHT22;1368;49.484;11.112;2022-11-20T08:17:09;5.30;99.90
2721;DHT22;1368;49.484;11.112;2022-11-20T08:19:35;5.30;99.90
2721;DHT22;1368;49.484;11.112;2022-11-20T08:22:00;5.30;99.90
2721;DHT22;1368;49.484;11.112;2022-11-20T08:24:26;5.30;99.90
2721;DHT22;1368;49.484;11.112;2022-11-20T08:26:52;5.30;99.90
2721;DHT22;1368;49.484;11.112;2022-11-20T08:29:18;5.40;99.90
2721;DHT22;1368;49.484;11.112;2022-11-20T08:31:43;5.70;99.90
2721;DHT22;1368;49.484;11.112;2022-11-20T08:34:09;5.50;99.90
2721;DHT22;1368;49.484;11.112;2022-11-20T08:36:35;5.50;99.90
2721;DHT22;1368;49.484;11.112;2022-11-20T08:39:00;5.40;99.90
2721;DHT22;1368;49.484;11.112;2022-11-20T08:41:26;5.50;99.90
2721;DHT22;1368;49.484;11.112;2022-11-20T08:44:05;5.50;99.90
2721;DHT22;1368;49.484;11.112;2022-11-20T08:46:41;5.40;99.90
2721;DHT22;1368;49.484;11.112;2022-11-20T08:49:10;5.30;99.90
2721;DHT22;1368;49.484;11.112;2022-11-20T08:51:37;5.10;99.90
2721;DHT22;1368;49.484;11.112;2022-11-20T08:54:03;5.10;99.90
2721;DHT22;1368;49.484;11.112;2022-11-20T08:56:29;5.00;99.90
2721;DHT22;1368;49.484;11.112;2022-11-20T08:58:55;5.10;99.90
2721;DHT22;1368;49.484;11.112;2022-11-20T09:01:22;5.20;99.90
2721;DHT22;1368;49.484;11.112;2022-11-20T09:03:48;5.20;99.90
2721;DHT22;1368;49.484;11.112;2022-11-20T09:06:15;5.20;99.90
2721;DHT22;1368;49.484;11.112;2022-11-20T09:08:41;5.10;99.90
2721;DHT22;1368;49.484;11.112;2022-11-20T09:11:07;5.20;99.90
2721;DHT22;1368;49.484;11.112;2022-11-20T09:13:33;5.40;99.90
2721;DHT22;1368;49.484;11.112;2022-11-20T09:16:05;5.40;99.90
2721;DHT22;1368;49.484;11.112;2022-11-20T09:18:31;5.10;99.90
2721;DHT22;1368;49.484;11.112;2022-11-20T09:20:58;5.10;99.90
2721;DHT22;1368;49.484;11.112;2022-11-20T09:23:24;5.00;99.90
2721;DHT22;1368;49.484;11.112;2022-11-20T09:25:50;4.90;99.90
2721;DHT22;1368;49.484;11.112;2022-11-20T09:28:16;4.90;99.90
2721;DHT22;1368;49.484;11.112;2022-11-20T09:30:43;4.70;99.90
2721;DHT22;1368;49.484;11.112;2022-11-20T09:33:09;4.50;99.90
2721;DHT22;1368;49.484;11.112;2022-11-20T09:35:34;4.40;99.90
2721;DHT22;1368;49.484;11.112;2022-11-20T09:38:06;4.60;99.90
2721;DHT22;1368;49.484;11.112;2022-11-20T09:40:34;4.90;99.90
2721;DHT22;1368;49.484;11.112;2022-11-20T09:45:49;5.20;99.90
2721;DHT22;1368;49.484;11.112;2022-11-20T09:56:26;5.40;99.90
2721;DHT22;1368;49.484;11.112;2022-11-20T09:58:57;5.50;99.90
2721;DHT22;1368;49.484;11.112;2022-11-20T10:01:35;5.70;99.90
2721;DHT22;1368;49.484;11.112;2022-11-20T10:04:16;5.60;99.90
2721;DHT22;1368;49.484;11.112;2022-11-20T10:07:06;5.50;99.90
2721;DHT22;1368;49.484;11.112;2022-11-20T10:09:49;5.40;99.90
2721;DHT22;1368;49.484;11.112;2022-11-20T10:15:27;5.60;99.90
2721;DHT22;1368;49.484;11.112;2022-11-20T10:18:11;5.60;99.90
2721;DHT22;1368;49.484;11.112;2022-11-20T10:29:13;5.40;99.90
2721;DHT22;1368;49.484;11.112;2022-11-20T10:34:43;5.20;99.90
2721;DHT22;1368;49.484;11.112;2022-11-20T10:37:16;5.10;99.90
2721;DHT22;1368;49.484;11.112;2022-11-20T10:42:38;5.20;99.90
2721;DHT22;1368;49.484;11.112;2022-11-20T10:45:21;5.10;99.90
2721;DHT22;1368;49.484;11.112;2022-11-20T10:48:20;5.40;99.90
2721;DHT22;1368;49.484;11.112;2022-11-20T10:51:26;5.50;99.90
2721;DHT22;1368;49.484;11.112;2022-11-20T10:56:33;5.80;99.90
2721;DHT22;1368;49.484;11.112;2022-11-20T11:01:45;5.80;99.90
2721;DHT22;1368;49.484;11.112;2022-11-20T11:04:40;5.90;99.90
2721;DHT22;1368;49.484;11.112;2022-11-20T11:07:16;6.00;99.90
2721;DHT22;1368;49.484;11.112;2022-11-20T11:09:46;6.00;99.90
2721;DHT22;1368;49.484;11.112;2022-11-20T11:12:13;6.20;99.90
2721;DHT22;1368;49.484;11.112;2022-11-20T11:14:50;6.10;99.90
2721;DHT22;1368;49.484;11.112;2022-11-20T11:17:30;6.10;99.90
2721;DHT22;1368;49.484;11.112;2022-11-20T11:22:31;5.80;99.90
2721;DHT22;1368;49.484;11.112;2022-11-20T11:24:57;5.60;99.90
2721;DHT22;1368;49.484;11.112;2022-11-20T11:27:23;5.10;99.90
2721;DHT22;1368;49.484;11.112;2022-11-20T11:29:49;4.40;99.90
2721;DHT22;1368;49.484;11.112;2022-11-20T11:32:19;4.20;99.90
2721;DHT22;1368;49.484;11.112;2022-11-20T11:35:51;4.50;99.90
2721;DHT22;1368;49.484;11.112;2022-11-20T11:38:40;4.60;99.90
2721;DHT22;1368;49.484;11.112;2022-11-20T11:41:17;4.80;99.90
2721;DHT22;1368;49.484;11.112;2022-11-20T11:43:55;4.90;99.90
2721;DHT22;1368;49.484;11.112;2022-11-20T11:46:49;5.00;99.90
2721;DHT22;1368;49.484;11.112;2022-11-20T11:49:18;5.80;99.90
2721;DHT22;1368;49.484;11.112;2022-11-20T11:51:51;5.80;99.90
2721;DHT22;1368;49.484;11.112;2022-11-20T11:54:33;6.00;99.90
2721;DHT22;1368;49.484;11.112;2022-11-20T11:57:01;6.10;99.90
2721;DHT22;1368;49.484;11.112;2022-11-20T12:02:49;6.40;99.90
2721;DHT22;1368;49.484;11.112;2022-11-20T12:05:24;6.50;99.90
2721;DHT22;1368;49.484;11.112;2022-11-20T12:08:04;6.80;99.90
2721;DHT22;1368;49.484;11.112;2022-11-20T12:10:54;7.00;99.90
2721;DHT22;1368;49.484;11.112;2022-11-20T12:15:50;6.60;99.90
2721;DHT22;1368;49.484;11.112;2022-11-20T12:18:20;6.90;99.90
2721;DHT22;1368;49.484;11.112;2022-11-20T12:21:01;7.00;99.90
2721;DHT22;1368;49.484;11.112;2022-11-20T12:26:48;7.10;99.90
2721;DHT22;1368;49.484;11.112;2022-11-20T12:35:21;7.10;99.90
2721;DHT22;1368;49.484;11.112;2022-11-20T12:44:00;7.30;99.90
2721;DHT22;1368;49.484;11.112;2022-11-20T12:47:04;7.40;99.90
2721;DHT22;1368;49.484;11.112;2022-11-20T12:49:41;7.90;99.90
2721;DHT22;1368;49.484;11.112;2022-11-20T12:54:52;7.50;99.90
2721;DHT22;1368;49.484;11.112;2022-11-20T13:00:17;7.50;99.90
2721;DHT22;1368;49.484;11.112;2022-11-20T13:05:36;7.30;99.90
2721;DHT22;1368;49.484;11.112;2022-11-20T13:08:03;7.20;99.90
2721;DHT22;1368;49.484;11.112;2022-11-20T13:11:01;7.50;99.90
2721;DHT22;1368;49.484;11.112;2022-11-20T13:19:13;6.90;99.90
2721;DHT22;1368;49.484;11.112;2022-11-20T13:21:41;6.90;99.90
2721;DHT22;1368;49.484;11.112;2022-11-20T13:24:29;7.00;99.90
2721;DHT22;1368;49.484;11.112;2022-11-20T13:29:35;7.00;99.90
2721;DHT22;1368;49.484;11.112;2022-11-20T13:32:26;7.10;99.90
2721;DHT22;1368;49.484;11.112;2022-11-20T13:35:02;7.10;99.90
2721;DHT22;1368;49.484;11.112;2022-11-20T13:37:32;6.90;99.90
2721;DHT22;1368;49.484;11.112;2022-11-20T13:42:45;7.10;99.90
2721;DHT22;1368;49.484;11.112;2022-11-20T13:45:26;6.90;99.90
2721;DHT22;1368;49.484;11.112;2022-11-20T13:47:53;7.00;99.90
2721;DHT22;1368;49.484;11.112;2022-11-20T13:50:21;6.80;99.90
2721;DHT22;1368;49.484;11.112;2022-11-20T13:53:00;6.70;99.90
2721;DHT22;1368;49.484;11.112;2022-11-20T13:55:59;6.60;99.90
2721;DHT22;1368;49.484;11.112;2022-11-20T13:58:58;6.40;99.90
2721;DHT22;1368;49.484;11.112;2022-11-20T14:01:30;6.10;99.90
2721;DHT22;1368;49.484;11.112;2022-11-20T14:04:06;6.00;99.90
2721;DHT22;1368;49.484;11.112;2022-11-20T14:06:41;6.00;99.90
2721;DHT22;1368;49.484;11.112;2022-11-20T14:09:26;6.20;99.90
2721;DHT22;1368;49.484;11.112;2022-11-20T14:11:51;6.30;99.90
2721;DHT22;1368;49.484;11.112;2022-11-20T14:14:19;6.50;99.90
2721;DHT22;1368;49.484;11.112;2022-11-20T14:16:46;6.60;99.90
2721;DHT22;1368;49.484;11.112;2022-11-20T14:21:53;6.60;99.90
2721;DHT22;1368;49.484;11.112;2022-11-20T14:24:24;6.60;99.90
2721;DHT22;1368;49.484;11.112;2022-11-20T14:26:50;6.70;99.90
2721;DHT22;1368;49.484;11.112;2022-11-20T14:29:19;6.70;99.90
2721;DHT22;1368;49.484;11.112;2022-11-20T14:31:46;6.70;99.90
2721;DHT22;1368;49.484;11.112;2022-11-20T14:34:18;6.70;99.90
2721;DHT22;1368;49.484;11.112;2022-11-20T14:36:45;6.80;99.90
2721;DHT22;1368;49.484;11.112;2022-11-20T14:39:12;6.80;99.90
2721;DHT22;1368;49.484;11.112;2022-11-20T14:41:51;6.80;99.90
2721;DHT22;1368;49.484;11.112;2022-11-20T14:44:17;6.80;99.90
2721;DHT22;1368;49.484;11.112;2022-11-20T14:46:43;7.20;99.90
2721;DHT22;1368;49.484;11.112;2022-11-20T14:49:10;6.80;99.90
2721;DHT22;1368;49.484;11.112;2022-11-20T14:51:38;6.80;99.90
2721;DHT22;1368;49.484;11.112;2022-11-20T14:54:16;6.70;99.90
2721;DHT22;1368;49.484;11.112;2022-11-20T14:57:00;6.70;99.90
2721;DHT22;1368;49.484;11.112;2022-11-20T14:59:28;6.70;99.90
2721;DHT22;1368;49.484;11.112;2022-11-20T15:01:59;6.60;99.90
2721;DHT22;1368;49.484;11.112;2022-11-20T15:04:26;6.60;99.90
2721;DHT22;1368;49.484;11.112;2022-11-20T15:06:54;6.60;99.90
2721;DHT22;1368;49.484;11.112;2022-11-20T15:09:20;6.70;99.90
2721;DHT22;1368;49.484;11.112;2022-11-20T15:11:57;6.60;99.90
2721;DHT22;1368;49.484;11.112;2022-11-20T15:14:25;6.60;99.90
2721;DHT22;1368;49.484;11.112;2022-11-20T15:16:52;6.60;99.90
2721;DHT22;1368;49.484;11.112;2022-11-20T15:19:21;6.60;99.90
2721;DHT22;1368;49.484;11.112;2022-11-20T15:21:47;6.50;99.90
2721;DHT22;1368;49.484;11.112;2022-11-20T15:24:13;6.40;99.90
2721;DHT22;1368;49.484;11.112;2022-11-20T15:26:39;6.40;99.90
2721;DHT22;1368;49.484;11.112;2022-11-20T15:29:09;6.50;99.90
2721;DHT22;1368;49.484;11.112;2022-11-20T15:31:36;6.50;99.90
2721;DHT22;1368;49.484;11.112;2022-11-20T15:34:02;6.50;99.90
2721;DHT22;1368;49.484;11.112;2022-11-20T15:36:28;6.50;99.90
2721;DHT22;1368;49.484;11.112;2022-11-20T15:38:53;6.60;99.90
2721;DHT22;1368;49.484;11.112;2022-11-20T15:41:19;6.60;99.90
2721;DHT22;1368;49.484;11.112;2022-11-20T15:43:44;6.60;99.90
2721;DHT22;1368;49.484;11.112;2022-11-20T15:46:16;6.50;99.90
2721;DHT22;1368;49.484;11.112;2022-11-20T15:48:43;6.50;99.90
2721;DHT22;1368;49.484;11.112;2022-11-20T15:51:19;6.60;99.90
2721;DHT22;1368;49.484;11.112;2022-11-20T15:53:46;6.60;99.90
2721;DHT22;1368;49.484;11.112;2022-11-20T15:56:13;6.60;99.90
2721;DHT22;1368;49.484;11.112;2022-11-20T15:58:39;6.60;99.90
2721;DHT22;1368;49.484;11.112;2022-11-20T16:01:09;6.60;99.90
2721;DHT22;1368;49.484;11.112;2022-11-20T16:03:35;6.60;99.90
2721;DHT22;1368;49.484;11.112;2022-11-20T16:06:00;6.60;99.90
2721;DHT22;1368;49.484;11.112;2022-11-20T16:08:26;6.60;99.90
2721;DHT22;1368;49.484;11.112;2022-11-20T16:10:51;6.60;99.90
2721;DHT22;1368;49.484;11.112;2022-11-20T16:13:17;6.40;99.90
2721;DHT22;1368;49.484;11.112;2022-11-20T16:16:05;6.50;99.90
2721;DHT22;1368;49.484;11.112;2022-11-20T16:18:32;6.90;99.90
2721;DHT22;1368;49.484;11.112;2022-11-20T16:20:58;6.40;99.90
2721;DHT22;1368;49.484;11.112;2022-11-20T16:23:23;6.50;99.90
2721;DHT22;1368;49.484;11.112;2022-11-20T16:25:50;6.50;99.90
2721;DHT22;1368;49.484;11.112;2022-11-20T16:28:16;6.50;99.90
2721;DHT22;1368;49.484;11.112;2022-11-20T16:30:42;6.60;99.90
2721;DHT22;1368;49.484;11.112;2022-11-20T16:33:15;6.60;99.90
2721;DHT22;1368;49.484;11.112;2022-11-20T16:35:42;6.40;99.90
2721;DHT22;1368;49.484;11.112;2022-11-20T16:38:08;6.10;99.90
2721;DHT22;1368;49.484;11.112;2022-11-20T16:40:34;5.80;99.90
2721;DHT22;1368;49.484;11.112;2022-11-20T16:43:08;5.70;99.90
2721;DHT22;1368;49.484;11.112;2022-11-20T16:45:37;5.70;99.90
2721;DHT22;1368;49.484;11.112;2022-11-20T16:48:05;5.30;99.90
2721;DHT22;1368;49.484;11.112;2022-11-20T16:50:30;5.40;99.90
2721;DHT22;1368;49.484;11.112;2022-11-20T16:52:56;5.50;99.90
2721;DHT22;1368;49.484;11.112;2022-11-20T16:55:21;5.60;99.90
2721;DHT22;1368;49.484;11.112;2022-11-20T16:57:47;5.40;99.90
2721;DHT22;1368;49.484;11.112;2022-11-20T17:00:13;5.20;99.90
2721;DHT22;1368;49.484;11.112;2022-11-20T17:02:38;5.40;99.90
2721;DHT22;1368;49.484;11.112;2022-11-20T17:05:04;5.50;99.90
2721;DHT22;1368;49.484;11.112;2022-11-20T17:07:30;5.70;99.90
2721;DHT22;1368;49.484;11.112;2022-11-20T17:09:56;5.10;99.90
2721;DHT22;1368;49.484;11.112;2022-11-20T17:12:22;5.20;99.90
2721;DHT22;1368;49.484;11.112;2022-11-20T17:14:47;5.40;99.90
2721;DHT22;1368;49.484;11.112;2022-11-20T17:17:13;5.90;99.90
2721;DHT22;1368;49.484;11.112;2022-11-20T17:19:39;5.90;99.90
2721;DHT22;1368;49.484;11.112;2022-11-20T17:22:04;6.10;99.90
2721;DHT22;1368;49.484;11.112;2022-11-20T17:24:30;6.00;99.90
2721;DHT22;1368;49.484;11.112;2022-11-20T17:26:55;5.80;99.90
2721;DHT22;1368;49.484;11.112;2022-11-20T17:29:21;5.60;99.90
2721;DHT22;1368;49.484;11.112;2022-11-20T17:31:49;5.20;99.90
2721;DHT22;1368;49.484;11.112;2022-11-20T17:34:15;5.20;99.90
2721;DHT22;1368;49.484;11.112;2022-11-20T17:36:41;5.00;99.90
2721;DHT22;1368;49.484;11.112;2022-11-20T17:39:10;5.00;99.90
2721;DHT22;1368;49.484;11.112;2022-11-20T17:41:36;5.10;99.90